createdAt,value
2023-02-02T00:00:06.182Z,83
2023-02-02T00:01:01.598Z,83
2023-02-02T00:02:01.641Z,83
2023-02-02T00:03:01.668Z,83
2023-02-02T00:04:01.841Z,84
2023-02-02T00:05:04.485Z,84
2023-02-02T00:06:00.307Z,84
2023-02-02T00:07:00.200Z,84
2023-02-02T00:08:00.263Z,84
2023-02-02T00:09:00.210Z,84
2023-02-02T00:10:04.818Z,84
2023-02-02T00:11:00.221Z,84
2023-02-02T00:12:00.294Z,84
2023-02-02T00:13:00.237Z,84
2023-02-02T00:14:00.304Z,84
2023-02-02T00:15:03.414Z,84
2023-02-02T00:16:00.415Z,84
2023-02-02T00:17:00.283Z,84
2023-02-02T00:18:00.336Z,84
2023-02-02T00:19:00.279Z,84
2023-02-02T00:20:04.840Z,84
2023-02-02T00:21:00.305Z,84
2023-02-02T00:22:00.453Z,84
2023-02-02T00:23:00.312Z,84
2023-02-02T00:24:00.390Z,84
2023-02-02T00:25:03.546Z,84
2023-02-02T00:26:00.391Z,84
2023-02-02T00:27:00.380Z,84
2023-02-02T00:28:00.461Z,84
2023-02-02T00:29:00.354Z,84
2023-02-02T00:30:04.918Z,84
2023-02-02T00:31:00.431Z,84
2023-02-02T00:32:00.427Z,84
2023-02-02T00:33:00.409Z,84
2023-02-02T00:34:00.485Z,84
2023-02-02T00:35:03.496Z,84
2023-02-02T00:36:00.475Z,84
2023-02-02T00:37:00.400Z,84
2023-02-02T00:38:00.516Z,84
2023-02-02T00:39:00.417Z,84
2023-02-02T00:40:05.041Z,84
2023-02-02T00:41:00.424Z,84
2023-02-02T00:42:00.504Z,84
2023-02-02T00:43:00.433Z,84
2023-02-02T00:44:00.527Z,84
2023-02-02T00:45:03.798Z,84
2023-02-02T00:46:00.562Z,84
2023-02-02T00:47:00.453Z,84
2023-02-02T00:48:00.546Z,84
2023-02-02T00:49:00.461Z,84
2023-02-02T00:50:06.087Z,83
2023-02-02T00:51:00.527Z,83
2023-02-02T00:52:00.783Z,83
2023-02-02T00:53:00.514Z,84
2023-02-02T00:54:00.611Z,84
2023-02-02T00:55:03.603Z,84
2023-02-02T00:56:00.586Z,84
2023-02-02T00:57:00.530Z,84
2023-02-02T00:58:00.614Z,84
2023-02-02T00:59:00.536Z,84
2023-02-02T01:00:05.533Z,84
2023-02-02T01:01:00.691Z,84
2023-02-02T01:02:00.695Z,84
2023-02-02T01:03:00.602Z,83
2023-02-02T01:04:00.678Z,83
2023-02-02T01:05:03.797Z,83
2023-02-02T01:06:00.684Z,83
2023-02-02T01:07:00.600Z,83
2023-02-02T01:08:00.715Z,83
2023-02-02T01:09:00.633Z,83
2023-02-02T01:10:05.942Z,83
2023-02-02T01:11:00.632Z,83
2023-02-02T01:12:00.737Z,83
2023-02-02T01:13:00.629Z,83
2023-02-02T01:14:00.729Z,83
2023-02-02T01:15:03.882Z,83
2023-02-02T01:16:00.759Z,83
2023-02-02T01:17:00.657Z,83
2023-02-02T01:18:00.756Z,83
2023-02-02T01:19:00.673Z,83
2023-02-02T01:20:06.080Z,83
2023-02-02T01:21:00.724Z,83
2023-02-02T01:22:02.273Z,83
2023-02-02T01:23:00.703Z,84
2023-02-02T01:24:00.793Z,84
2023-02-02T01:25:03.895Z,84
2023-02-02T01:26:00.808Z,84
2023-02-02T01:27:00.751Z,84
2023-02-02T01:28:00.821Z,84
2023-02-02T01:29:00.735Z,84
2023-02-02T01:30:05.307Z,84
2023-02-02T01:31:00.791Z,84
2023-02-02T01:32:00.870Z,84
2023-02-02T01:33:00.766Z,84
2023-02-02T01:34:00.867Z,84
2023-02-02T01:35:04.005Z,84
2023-02-02T01:36:00.851Z,84
2023-02-02T01:37:00.787Z,84
2023-02-02T01:38:00.845Z,84
2023-02-02T01:39:00.796Z,84
2023-02-02T01:40:05.403Z,84
2023-02-02T01:41:00.793Z,84
2023-02-02T01:42:00.897Z,84
2023-02-02T01:43:00.818Z,84
2023-02-02T01:44:00.889Z,84
2023-02-02T01:45:06.181Z,84
2023-02-02T01:46:00.978Z,84
2023-02-02T01:47:00.833Z,84
2023-02-02T01:48:00.918Z,84
2023-02-02T01:49:00.844Z,84
2023-02-02T01:50:04.361Z,84
2023-02-02T01:51:00.889Z,84
2023-02-02T01:52:00.953Z,84
2023-02-02T01:53:00.855Z,84
2023-02-02T01:54:00.950Z,84
2023-02-02T01:55:04.265Z,84
2023-02-02T01:56:00.963Z,84
2023-02-02T01:57:00.957Z,84
2023-02-02T01:58:00.989Z,84
2023-02-02T01:59:00.892Z,84
2023-02-02T02:00:05.520Z,84
2023-02-02T02:01:00.943Z,85
2023-02-02T02:02:01.064Z,85
2023-02-02T02:03:01.168Z,85
2023-02-02T02:04:01.015Z,85
2023-02-02T02:05:04.198Z,85
2023-02-02T02:06:01.068Z,85
2023-02-02T02:07:00.968Z,85
2023-02-02T02:08:01.054Z,85
2023-02-02T02:09:01.038Z,86
2023-02-02T02:10:05.665Z,86
2023-02-02T02:11:00.986Z,86
2023-02-02T02:12:01.096Z,86
2023-02-02T02:13:01.002Z,86
2023-02-02T02:14:01.099Z,86
2023-02-02T02:15:04.288Z,86
2023-02-02T02:16:01.109Z,87
2023-02-02T02:17:01.038Z,87
2023-02-02T02:18:01.120Z,87
2023-02-02T02:19:01.061Z,87
2023-02-02T02:20:06.088Z,87
2023-02-02T02:21:01.076Z,87
2023-02-02T02:22:01.135Z,87
2023-02-02T02:23:01.084Z,88
2023-02-02T02:24:01.165Z,88
2023-02-02T02:25:04.199Z,88
2023-02-02T02:26:01.191Z,88
2023-02-02T02:27:01.115Z,88
2023-02-02T02:28:01.175Z,88
2023-02-02T02:29:01.113Z,88
2023-02-02T02:30:05.974Z,88
2023-02-02T02:31:01.206Z,88
2023-02-02T02:32:01.691Z,88
2023-02-02T02:33:01.156Z,88
2023-02-02T02:34:01.572Z,88
2023-02-02T02:35:04.785Z,88
2023-02-02T02:36:01.575Z,88
2023-02-02T02:37:01.185Z,88
2023-02-02T02:38:01.619Z,88
2023-02-02T02:39:01.659Z,89
2023-02-02T02:40:06.481Z,89
2023-02-02T02:41:01.648Z,89
2023-02-02T02:42:01.761Z,89
2023-02-02T02:43:00.224Z,89
2023-02-02T02:44:00.314Z,89
2023-02-02T02:45:03.388Z,89
2023-02-02T02:46:00.402Z,89
2023-02-02T02:47:00.394Z,89
2023-02-02T02:48:00.321Z,89
2023-02-02T02:49:00.259Z,89
2023-02-02T02:50:04.868Z,89
2023-02-02T02:51:00.271Z,89
2023-02-02T02:52:00.357Z,89
2023-02-02T02:53:00.258Z,89
2023-02-02T02:54:00.345Z,89
2023-02-02T02:55:03.492Z,89
2023-02-02T02:56:00.369Z,89
2023-02-02T02:57:00.312Z,89
2023-02-02T02:58:00.362Z,89
2023-02-02T02:59:00.309Z,89
2023-02-02T03:00:04.939Z,89
2023-02-02T03:01:00.316Z,89
2023-02-02T03:02:00.566Z,89
2023-02-02T03:03:00.337Z,89
2023-02-02T03:04:00.406Z,89
2023-02-02T03:05:03.451Z,89
2023-02-02T03:06:00.425Z,89
2023-02-02T03:07:00.339Z,89
2023-02-02T03:08:00.452Z,90
2023-02-02T03:09:00.387Z,90
2023-02-02T03:10:04.932Z,90
2023-02-02T03:11:00.380Z,90
2023-02-02T03:12:00.478Z,90
2023-02-02T03:13:00.404Z,90
2023-02-02T03:14:00.473Z,90
2023-02-02T03:15:03.706Z,90
2023-02-02T03:16:00.578Z,90
2023-02-02T03:17:00.408Z,90
2023-02-02T03:18:00.526Z,90
2023-02-02T03:19:00.444Z,90
2023-02-02T03:20:05.036Z,90
2023-02-02T03:21:00.461Z,90
2023-02-02T03:22:00.537Z,90
2023-02-02T03:23:00.453Z,90
2023-02-02T03:24:00.533Z,90
2023-02-02T03:25:03.564Z,90
2023-02-02T03:26:00.552Z,90
2023-02-02T03:27:00.499Z,90
2023-02-02T03:28:00.561Z,90
2023-02-02T03:29:00.500Z,90
2023-02-02T03:30:05.302Z,90
2023-02-02T03:31:00.722Z,90
2023-02-02T03:32:00.609Z,90
2023-02-02T03:33:00.530Z,90
2023-02-02T03:34:00.626Z,90
2023-02-02T03:35:04.354Z,90
2023-02-02T03:36:00.619Z,90
2023-02-02T03:37:00.549Z,89
2023-02-02T03:38:00.636Z,89
2023-02-02T03:39:00.575Z,89
2023-02-02T03:40:04.268Z,89
2023-02-02T03:41:00.575Z,89
2023-02-02T03:42:00.663Z,89
2023-02-02T03:43:00.582Z,89
2023-02-02T03:44:00.672Z,89
2023-02-02T03:45:03.908Z,89
2023-02-02T03:46:00.770Z,89
2023-02-02T03:47:00.609Z,89
2023-02-02T03:48:00.694Z,89
2023-02-02T03:49:00.605Z,89
2023-02-02T03:50:05.388Z,89
2023-02-02T03:51:00.636Z,89
2023-02-02T03:52:00.701Z,89
2023-02-02T03:53:00.641Z,89
2023-02-02T03:54:00.745Z,89
2023-02-02T03:55:03.843Z,89
2023-02-02T03:56:00.750Z,89
2023-02-02T03:57:00.694Z,89
2023-02-02T03:58:00.721Z,89
2023-02-02T03:59:00.698Z,89
2023-02-02T04:00:05.307Z,89
2023-02-02T04:01:00.687Z,89
2023-02-02T04:02:00.816Z,89
2023-02-02T04:03:00.736Z,89
2023-02-02T04:04:00.778Z,89
2023-02-02T04:05:03.808Z,89
2023-02-02T04:06:00.882Z,89
2023-02-02T04:07:00.720Z,89
2023-02-02T04:08:00.833Z,89
2023-02-02T04:09:00.759Z,89
2023-02-02T04:10:05.220Z,89
2023-02-02T04:11:00.756Z,89
2023-02-02T04:12:00.834Z,89
2023-02-02T04:13:00.764Z,89
2023-02-02T04:14:00.874Z,89
2023-02-02T04:15:04.052Z,89
2023-02-02T04:16:00.873Z,89
2023-02-02T04:17:00.795Z,90
2023-02-02T04:18:00.861Z,90
2023-02-02T04:19:00.802Z,90
2023-02-02T04:20:05.398Z,90
2023-02-02T04:21:00.851Z,90
2023-02-02T04:22:00.909Z,90
2023-02-02T04:23:00.820Z,90
2023-02-02T04:24:00.894Z,90
2023-02-02T04:25:04.062Z,90
2023-02-02T04:26:00.946Z,90
2023-02-02T04:27:00.860Z,90
2023-02-02T04:28:00.916Z,90
2023-02-02T04:29:00.867Z,90
2023-02-02T04:30:06.488Z,90
2023-02-02T04:31:00.940Z,90
2023-02-02T04:32:01.053Z,90
2023-02-02T04:33:00.910Z,90
2023-02-02T04:34:00.996Z,90
2023-02-02T04:35:04.091Z,90
2023-02-02T04:36:01.003Z,90
2023-02-02T04:37:00.910Z,90
2023-02-02T04:38:01.025Z,90
2023-02-02T04:39:00.950Z,90
2023-02-02T04:40:05.426Z,90
2023-02-02T04:41:00.958Z,90
2023-02-02T04:42:01.114Z,90
2023-02-02T04:43:00.961Z,90
2023-02-02T04:44:01.238Z,90
2023-02-02T04:45:05.274Z,90
2023-02-02T04:46:01.123Z,90
2023-02-02T04:47:00.997Z,90
2023-02-02T04:48:01.086Z,90
2023-02-02T04:49:00.983Z,90
2023-02-02T04:50:05.514Z,90
2023-02-02T04:51:01.012Z,90
2023-02-02T04:52:01.105Z,90
2023-02-02T04:53:01.007Z,90
2023-02-02T04:54:01.131Z,90
2023-02-02T04:55:04.202Z,90
2023-02-02T04:56:01.109Z,90
2023-02-02T04:57:01.035Z,90
2023-02-02T04:58:01.099Z,90
2023-02-02T04:59:01.041Z,90
2023-02-02T05:00:06.938Z,90
2023-02-02T05:01:01.095Z,90
2023-02-02T05:02:01.205Z,90
2023-02-02T05:03:01.077Z,90
2023-02-02T05:04:01.143Z,90
2023-02-02T05:05:04.313Z,90
2023-02-02T05:06:01.162Z,90
2023-02-02T05:07:01.104Z,90
2023-02-02T05:08:01.372Z,90
2023-02-02T05:09:01.117Z,90
2023-02-02T05:10:06.412Z,90
2023-02-02T05:11:01.111Z,90
2023-02-02T05:12:01.679Z,90
2023-02-02T05:13:01.113Z,90
2023-02-02T05:14:01.684Z,90
2023-02-02T05:15:04.387Z,90
2023-02-02T05:16:01.663Z,90
2023-02-02T05:17:01.258Z,90
2023-02-02T05:18:01.659Z,90
2023-02-02T05:19:01.145Z,90
2023-02-02T05:20:07.412Z,90
2023-02-02T05:21:01.173Z,90
2023-02-02T05:22:01.657Z,90
2023-02-02T05:23:01.179Z,90
2023-02-02T05:24:01.725Z,90
2023-02-02T05:25:05.211Z,90
2023-02-02T05:26:01.767Z,90
2023-02-02T05:27:01.685Z,90
2023-02-02T05:28:01.725Z,90
2023-02-02T05:29:00.223Z,90
2023-02-02T05:30:05.296Z,90
2023-02-02T05:31:00.263Z,90
2023-02-02T05:32:00.409Z,90
2023-02-02T05:33:00.250Z,90
2023-02-02T05:34:00.323Z,90
2023-02-02T05:35:03.525Z,90
2023-02-02T05:36:00.344Z,90
2023-02-02T05:37:00.271Z,90
2023-02-02T05:38:00.378Z,90
2023-02-02T05:39:00.301Z,90
2023-02-02T05:40:04.827Z,90
2023-02-02T05:41:00.305Z,90
2023-02-02T05:42:00.403Z,90
2023-02-02T05:43:00.304Z,90
2023-02-02T05:44:00.380Z,90
2023-02-02T05:45:04.674Z,90
2023-02-02T05:46:00.529Z,90
2023-02-02T05:47:00.323Z,90
2023-02-02T05:48:00.439Z,90
2023-02-02T05:49:00.357Z,90
2023-02-02T05:50:04.842Z,90
2023-02-02T05:51:00.356Z,90
2023-02-02T05:52:00.404Z,90
2023-02-02T05:53:00.355Z,90
2023-02-02T05:54:01.087Z,90
2023-02-02T05:55:03.717Z,90
2023-02-02T05:56:00.561Z,90
2023-02-02T05:57:00.402Z,90
2023-02-02T05:58:00.499Z,90
2023-02-02T05:59:00.424Z,90
2023-02-02T06:00:05.177Z,90
2023-02-02T06:01:00.469Z,90
2023-02-02T06:02:00.530Z,90
2023-02-02T06:03:00.552Z,90
2023-02-02T06:04:00.641Z,90
2023-02-02T06:05:03.765Z,90
2023-02-02T06:06:00.563Z,90
2023-02-02T06:07:00.489Z,90
2023-02-02T06:08:00.623Z,90
2023-02-02T06:09:00.507Z,90
2023-02-02T06:10:05.059Z,90
2023-02-02T06:11:00.507Z,90
2023-02-02T06:12:00.590Z,90
2023-02-02T06:13:00.548Z,90
2023-02-02T06:14:00.820Z,90
2023-02-02T06:15:04.852Z,90
2023-02-02T06:16:00.637Z,90
2023-02-02T06:17:00.537Z,90
2023-02-02T06:18:00.627Z,90
2023-02-02T06:19:00.576Z,90
2023-02-02T06:20:06.467Z,90
2023-02-02T06:21:00.582Z,90
2023-02-02T06:22:00.659Z,90
2023-02-02T06:23:00.597Z,90
2023-02-02T06:24:00.682Z,90
2023-02-02T06:25:03.897Z,90
2023-02-02T06:26:00.735Z,90
2023-02-02T06:27:00.661Z,90
2023-02-02T06:28:00.718Z,90
2023-02-02T06:29:00.639Z,90
2023-02-02T06:30:05.413Z,90
2023-02-02T06:31:00.786Z,90
2023-02-02T06:32:00.886Z,90
2023-02-02T06:33:00.669Z,90
2023-02-02T06:34:00.725Z,90
2023-02-02T06:35:04.227Z,90
2023-02-02T06:36:00.853Z,90
2023-02-02T06:37:00.770Z,89
2023-02-02T06:38:00.784Z,89
2023-02-02T06:39:00.693Z,89
2023-02-02T06:40:05.262Z,89
2023-02-02T06:41:00.729Z,89
2023-02-02T06:42:11.914Z,89
2023-02-02T06:43:00.717Z,89
2023-02-02T06:44:00.982Z,89
2023-02-02T06:45:04.103Z,89
2023-02-02T06:46:00.907Z,89
2023-02-02T06:47:00.746Z,89
2023-02-02T06:48:00.823Z,89
2023-02-02T06:49:00.745Z,89
2023-02-02T06:50:05.267Z,89
2023-02-02T06:51:00.767Z,89
2023-02-02T06:52:00.820Z,89
2023-02-02T06:53:00.768Z,89
2023-02-02T06:54:00.861Z,89
2023-02-02T06:55:05.131Z,89
2023-02-02T06:56:00.866Z,89
2023-02-02T06:57:00.797Z,89
2023-02-02T06:58:00.919Z,89
2023-02-02T06:59:00.799Z,89
2023-02-02T07:00:05.483Z,89
2023-02-02T07:01:00.867Z,89
2023-02-02T07:02:00.971Z,89
2023-02-02T07:03:01.012Z,89
2023-02-02T07:04:00.937Z,88
2023-02-02T07:05:04.103Z,88
2023-02-02T07:06:00.954Z,88
2023-02-02T07:07:00.920Z,88
2023-02-02T07:08:01.000Z,88
2023-02-02T07:09:02.690Z,88
2023-02-02T07:10:05.405Z,88
2023-02-02T07:11:12.943Z,88
2023-02-02T07:12:01.025Z,88
2023-02-02T07:13:00.954Z,88
2023-02-02T07:14:01.016Z,88
2023-02-02T07:15:08.397Z,88
2023-02-02T07:16:01.075Z,88
2023-02-02T07:17:00.971Z,88
2023-02-02T07:18:01.226Z,88
2023-02-02T07:19:01.002Z,88
2023-02-02T07:20:06.149Z,88
2023-02-02T07:21:01.079Z,88
2023-02-02T07:22:01.071Z,88
2023-02-02T07:23:00.998Z,88
2023-02-02T07:24:01.096Z,88
2023-02-02T07:25:05.252Z,88
2023-02-02T07:26:01.130Z,88
2023-02-02T07:27:01.084Z,88
2023-02-02T07:28:01.113Z,88
2023-02-02T07:29:01.039Z,88
2023-02-02T07:30:06.021Z,88
2023-02-02T07:31:01.229Z,88
2023-02-02T07:32:01.167Z,88
2023-02-02T07:33:01.070Z,88
2023-02-02T07:34:01.162Z,88
2023-02-02T07:35:04.647Z,88
2023-02-02T07:36:01.158Z,88
2023-02-02T07:37:01.072Z,87
2023-02-02T07:38:01.181Z,87
2023-02-02T07:39:01.108Z,87
2023-02-02T07:40:06.252Z,87
2023-02-02T07:41:01.133Z,87
2023-02-02T07:42:01.666Z,87
2023-02-02T07:43:01.120Z,87
2023-02-02T07:44:01.723Z,87
2023-02-02T07:45:27.654Z,87
2023-02-02T07:46:01.640Z,87
2023-02-02T07:47:01.155Z,88
2023-02-02T07:48:01.694Z,88
2023-02-02T07:49:01.176Z,88
2023-02-02T07:50:06.325Z,88
2023-02-02T07:51:01.667Z,88
2023-02-02T07:52:01.727Z,88
2023-02-02T07:53:01.635Z,88
2023-02-02T07:54:01.731Z,88
2023-02-02T07:55:13.870Z,88
2023-02-02T07:56:00.303Z,88
2023-02-02T07:57:00.218Z,88
2023-02-02T07:58:00.287Z,88
2023-02-02T07:59:00.244Z,88
2023-02-02T08:00:09.644Z,88
2023-02-02T08:01:00.309Z,88
2023-02-02T08:02:00.486Z,88
2023-02-02T08:03:00.367Z,88
2023-02-02T08:04:00.430Z,88
2023-02-02T08:05:06.626Z,88
2023-02-02T08:06:00.388Z,88
2023-02-02T08:07:00.291Z,88
2023-02-02T08:08:00.400Z,88
2023-02-02T08:09:00.303Z,88
2023-02-02T08:10:06.187Z,87
2023-02-02T08:11:00.303Z,87
2023-02-02T08:12:00.412Z,87
2023-02-02T08:13:00.330Z,87
2023-02-02T08:14:00.424Z,87
2023-02-02T08:15:03.581Z,87
2023-02-02T08:16:00.465Z,87
2023-02-02T08:17:00.344Z,87
2023-02-02T08:18:00.471Z,87
2023-02-02T08:19:00.373Z,87
2023-02-02T08:20:05.166Z,87
2023-02-02T08:21:00.365Z,87
2023-02-02T08:22:00.482Z,87
2023-02-02T08:23:00.392Z,87
2023-02-02T08:24:00.459Z,87
2023-02-02T08:25:03.552Z,87
2023-02-02T08:26:00.477Z,87
2023-02-02T08:27:00.622Z,87
2023-02-02T08:28:00.463Z,87
2023-02-02T08:29:00.424Z,87
2023-02-02T08:30:05.831Z,87
2023-02-02T08:31:00.423Z,87
2023-02-02T08:32:00.639Z,87
2023-02-02T08:33:00.447Z,88
2023-02-02T08:34:00.589Z,88
2023-02-02T08:35:03.808Z,88
2023-02-02T08:36:00.549Z,88
2023-02-02T08:37:00.463Z,88
2023-02-02T08:38:00.600Z,88
2023-02-02T08:39:02.895Z,88
2023-02-02T08:40:05.208Z,88
2023-02-02T08:41:00.492Z,88
2023-02-02T08:42:00.561Z,88
2023-02-02T08:43:00.503Z,88
2023-02-02T08:44:00.620Z,88
2023-02-02T08:46:00.130Z,88
2023-02-02T08:46:05.342Z,88
2023-02-02T08:47:00.628Z,88
2023-02-02T08:48:11.335Z,88
2023-02-02T08:49:00.541Z,88
2023-02-02T08:50:06.594Z,88
2023-02-02T08:51:00.581Z,88
2023-02-02T08:52:00.629Z,88
2023-02-02T08:53:00.557Z,88
2023-02-02T08:54:00.717Z,88
2023-02-02T08:55:03.822Z,88
2023-02-02T08:56:00.683Z,88
2023-02-02T08:57:00.619Z,88
2023-02-02T08:58:00.684Z,88
2023-02-02T08:59:00.614Z,88
2023-02-02T09:00:12.006Z,89
2023-02-02T09:01:00.686Z,89
2023-02-02T09:02:01.700Z,89
2023-02-02T09:03:00.638Z,89
2023-02-02T09:04:01.682Z,89
2023-02-02T09:05:05.000Z,89
2023-02-02T09:06:00.771Z,89
2023-02-02T09:07:00.671Z,89
2023-02-02T09:08:01.683Z,89
2023-02-02T09:09:00.679Z,89
2023-02-02T09:10:06.024Z,89
2023-02-02T09:11:00.669Z,89
2023-02-02T09:12:00.772Z,89
2023-02-02T09:13:00.711Z,89
2023-02-02T09:14:01.243Z,89
2023-02-02T09:15:04.011Z,89
2023-02-02T09:16:01.695Z,89
2023-02-02T09:17:00.763Z,89
2023-02-02T09:18:01.786Z,89
2023-02-02T09:19:00.719Z,89
2023-02-02T09:20:05.260Z,89
2023-02-02T09:21:00.741Z,89
2023-02-02T09:22:00.800Z,89
2023-02-02T09:23:00.732Z,89
2023-02-02T09:24:00.833Z,88
2023-02-02T09:25:04.076Z,88
2023-02-02T09:26:00.860Z,88
2023-02-02T09:27:00.833Z,88
2023-02-02T09:28:00.824Z,88
2023-02-02T09:29:00.756Z,88
2023-02-02T09:30:05.944Z,88
2023-02-02T09:31:00.853Z,88
2023-02-02T09:32:00.899Z,88
2023-02-02T09:33:00.806Z,88
2023-02-02T09:34:00.878Z,89
2023-02-02T09:35:04.223Z,89
2023-02-02T09:36:00.898Z,89
2023-02-02T09:37:00.834Z,89
2023-02-02T09:38:00.924Z,89
2023-02-02T09:39:00.851Z,89
2023-02-02T09:40:06.226Z,89
2023-02-02T09:41:00.844Z,89
2023-02-02T09:42:00.952Z,89
2023-02-02T09:43:00.864Z,89
2023-02-02T09:44:00.958Z,89
2023-02-02T09:45:05.226Z,89
2023-02-02T09:46:01.120Z,89
2023-02-02T09:47:00.896Z,89
2023-02-02T09:48:00.949Z,89
2023-02-02T09:49:00.881Z,89
2023-02-02T09:50:07.571Z,89
2023-02-02T09:51:00.899Z,89
2023-02-02T09:52:00.954Z,89
2023-02-02T09:53:00.901Z,89
2023-02-02T09:54:00.983Z,89
2023-02-02T09:55:04.169Z,89
2023-02-02T09:56:01.047Z,89
2023-02-02T09:57:00.945Z,89
2023-02-02T09:58:01.018Z,89
2023-02-02T09:59:13.718Z,88
2023-02-02T10:00:07.354Z,88
2023-02-02T10:01:02.070Z,88
2023-02-02T10:02:02.052Z,88
2023-02-02T10:03:01.998Z,88
2023-02-02T10:04:02.087Z,88
2023-02-02T10:05:08.313Z,88
2023-02-02T10:06:02.104Z,88
2023-02-02T10:07:02.025Z,88
2023-02-02T10:08:02.103Z,88
2023-02-02T10:09:02.062Z,88
2023-02-02T10:10:06.133Z,88
2023-02-02T10:11:02.038Z,88
2023-02-02T10:12:02.123Z,88
2023-02-02T10:13:02.081Z,88
2023-02-02T10:14:02.112Z,88
2023-02-02T10:15:06.723Z,88
2023-02-02T10:16:02.189Z,88
2023-02-02T10:17:02.066Z,88
2023-02-02T10:18:04.240Z,88
2023-02-02T10:19:02.099Z,88
2023-02-02T10:20:05.986Z,88
2023-02-02T10:21:02.119Z,88
2023-02-02T10:22:02.617Z,88
2023-02-02T10:23:02.125Z,88
2023-02-02T10:24:02.579Z,88
2023-02-02T10:25:06.981Z,88
2023-02-02T10:26:02.547Z,88
2023-02-02T10:27:02.163Z,88
2023-02-02T10:28:02.805Z,88
2023-02-02T10:29:02.149Z,88
2023-02-02T10:30:07.092Z,88
2023-02-02T10:31:02.784Z,88
2023-02-02T10:32:02.659Z,88
2023-02-02T10:33:02.647Z,88
2023-02-02T10:34:02.763Z,88
2023-02-02T10:35:13.943Z,88
2023-02-02T10:36:01.274Z,88
2023-02-02T10:37:01.209Z,89
2023-02-02T10:38:01.290Z,89
2023-02-02T10:39:01.221Z,89
2023-02-02T10:40:05.823Z,89
2023-02-02T10:41:01.243Z,89
2023-02-02T10:42:01.299Z,89
2023-02-02T10:43:01.231Z,89
2023-02-02T10:44:01.343Z,89
2023-02-02T10:45:06.342Z,89
2023-02-02T10:46:01.385Z,89
2023-02-02T10:47:01.636Z,89
2023-02-02T10:48:00.325Z,89
2023-02-02T10:49:01.823Z,89
2023-02-02T10:50:03.738Z,89
2023-02-02T10:51:00.268Z,89
2023-02-02T10:52:00.342Z,89
2023-02-02T10:53:00.383Z,89
2023-02-02T10:54:00.389Z,89
2023-02-02T10:55:05.311Z,89
2023-02-02T10:56:00.377Z,89
2023-02-02T10:57:00.320Z,89
2023-02-02T10:58:00.389Z,89
2023-02-02T10:59:00.345Z,89
2023-02-02T11:00:04.045Z,89
2023-02-02T11:01:00.330Z,89
2023-02-02T11:02:11.670Z,89
2023-02-02T11:03:00.468Z,89
2023-02-02T11:04:00.401Z,89
2023-02-02T11:05:04.621Z,89
2023-02-02T11:06:00.447Z,89
2023-02-02T11:07:01.617Z,89
2023-02-02T11:08:00.443Z,89
2023-02-02T11:09:00.374Z,89
2023-02-02T11:10:05.001Z,89
2023-02-02T11:11:00.415Z,89
2023-02-02T11:12:00.486Z,89
2023-02-02T11:13:01.983Z,89
2023-02-02T11:14:00.484Z,89
2023-02-02T11:15:04.688Z,89
2023-02-02T11:16:05.565Z,89
2023-02-02T11:17:00.447Z,89
2023-02-02T11:18:00.562Z,89
2023-02-02T11:19:00.451Z,88
2023-02-02T11:20:03.962Z,88
2023-02-02T11:21:00.480Z,88
2023-02-02T11:22:00.555Z,88
2023-02-02T11:23:00.507Z,88
2023-02-02T11:24:00.578Z,88
2023-02-02T11:25:04.812Z,88
2023-02-02T11:26:00.554Z,88
2023-02-02T11:27:00.509Z,88
2023-02-02T11:28:00.567Z,88
2023-02-02T11:29:01.146Z,88
2023-02-02T11:30:03.962Z,88
2023-02-02T11:31:00.719Z,88
2023-02-02T11:32:00.813Z,88
2023-02-02T11:33:00.546Z,88
2023-02-02T11:34:00.594Z,88
2023-02-02T11:35:04.934Z,88
2023-02-02T11:36:00.874Z,88
2023-02-02T11:37:00.593Z,88
2023-02-02T11:38:00.928Z,88
2023-02-02T11:39:00.592Z,88
2023-02-02T11:40:07.149Z,87
2023-02-02T11:41:00.581Z,87
2023-02-02T11:42:01.606Z,87
2023-02-02T11:43:00.627Z,87
2023-02-02T11:44:01.668Z,87
2023-02-02T11:45:04.874Z,87
2023-02-02T11:46:03.013Z,87
2023-02-02T11:47:00.650Z,87
2023-02-02T11:48:01.637Z,87
2023-02-02T11:49:00.671Z,87
2023-02-02T11:50:06.181Z,87
2023-02-02T11:51:00.698Z,87
2023-02-02T11:52:01.668Z,87
2023-02-02T11:53:00.653Z,87
2023-02-02T11:54:01.713Z,87
2023-02-02T11:55:04.979Z,87
2023-02-02T11:56:01.703Z,87
2023-02-02T11:57:00.685Z,87
2023-02-02T11:58:01.761Z,87
2023-02-02T11:59:00.684Z,87
2023-02-02T12:00:05.923Z,86
2023-02-02T12:01:00.721Z,86
2023-02-02T12:02:02.020Z,86
2023-02-02T12:03:00.737Z,86
2023-02-02T12:04:02.010Z,86
2023-02-02T12:05:04.050Z,86
2023-02-02T12:06:00.813Z,86
2023-02-02T12:07:00.745Z,86
2023-02-02T12:08:00.828Z,86
2023-02-02T12:09:00.776Z,86
2023-02-02T12:10:05.329Z,86
2023-02-02T12:11:00.783Z,86
2023-02-02T12:12:00.904Z,86
2023-02-02T12:13:00.767Z,86
2023-02-02T12:14:00.864Z,86
2023-02-02T12:15:04.197Z,86
2023-02-02T12:16:00.970Z,86
2023-02-02T12:17:00.800Z,86
2023-02-02T12:18:00.959Z,86
2023-02-02T12:19:00.826Z,86
2023-02-02T12:20:05.369Z,86
2023-02-02T12:21:00.870Z,86
2023-02-02T12:22:00.974Z,86
2023-02-02T12:23:00.867Z,85
2023-02-02T12:24:00.959Z,85
2023-02-02T12:25:04.300Z,85
2023-02-02T12:26:00.933Z,85
2023-02-02T12:27:00.966Z,85
2023-02-02T12:28:00.985Z,85
2023-02-02T12:29:00.913Z,85
2023-02-02T12:30:08.327Z,85
2023-02-02T12:31:00.986Z,85
2023-02-02T12:32:01.072Z,85
2023-02-02T12:33:00.938Z,85
2023-02-02T12:34:01.129Z,85
2023-02-02T12:35:04.206Z,85
2023-02-02T12:36:01.029Z,85
2023-02-02T12:37:00.975Z,85
2023-02-02T12:38:01.036Z,85
2023-02-02T12:39:00.978Z,85
2023-02-02T12:40:05.985Z,85
2023-02-02T12:41:01.013Z,85
2023-02-02T12:42:01.064Z,85
2023-02-02T12:43:01.001Z,85
2023-02-02T12:44:01.073Z,85
2023-02-02T12:45:05.025Z,85
2023-02-02T12:46:01.147Z,85
2023-02-02T12:47:01.012Z,85
2023-02-02T12:48:01.085Z,85
2023-02-02T12:49:01.013Z,85
2023-02-02T12:50:06.003Z,85
2023-02-02T12:51:01.056Z,85
2023-02-02T12:52:01.130Z,85
2023-02-02T12:53:01.054Z,85
2023-02-02T12:54:32.894Z,85
2023-02-02T12:55:04.420Z,85
2023-02-02T12:56:01.589Z,85
2023-02-02T12:57:01.139Z,85
2023-02-02T12:58:01.623Z,85
2023-02-02T12:59:01.062Z,85
2023-02-02T13:00:06.972Z,85
2023-02-02T13:01:01.169Z,85
2023-02-02T13:02:01.666Z,85
2023-02-02T13:03:01.140Z,85
2023-02-02T13:04:01.641Z,85
2023-02-02T13:05:05.883Z,85
2023-02-02T13:06:01.574Z,85
2023-02-02T13:07:01.151Z,85
2023-02-02T13:08:01.653Z,85
2023-02-02T13:09:01.622Z,85
2023-02-02T13:10:08.234Z,85
2023-02-02T13:11:01.632Z,85
2023-02-02T13:12:01.701Z,85
2023-02-02T13:13:01.633Z,85
2023-02-02T13:14:01.709Z,85
2023-02-02T13:15:08.078Z,85
2023-02-02T13:16:00.291Z,85
2023-02-02T13:17:00.270Z,84
2023-02-02T13:18:00.327Z,84
2023-02-02T13:19:00.191Z,84
2023-02-02T13:20:04.867Z,84
2023-02-02T13:21:00.236Z,84
2023-02-02T13:22:00.318Z,84
2023-02-02T13:23:00.276Z,84
2023-02-02T13:24:00.323Z,84
2023-02-02T13:25:03.561Z,84
2023-02-02T13:26:00.400Z,84
2023-02-02T13:27:00.442Z,84
2023-02-02T13:28:00.341Z,84
2023-02-02T13:29:00.251Z,84
2023-02-02T13:30:05.683Z,84
2023-02-02T13:31:00.449Z,84
2023-02-02T13:32:00.359Z,84
2023-02-02T13:33:00.317Z,84
2023-02-02T13:34:00.395Z,83
2023-02-02T13:35:03.722Z,83
2023-02-02T13:36:00.408Z,83
2023-02-02T13:37:00.330Z,83
2023-02-02T13:38:00.474Z,83
2023-02-02T13:39:00.370Z,83
2023-02-02T13:40:06.153Z,83
2023-02-02T13:41:00.357Z,83
2023-02-02T13:42:00.446Z,83
2023-02-02T13:43:00.382Z,83
2023-02-02T13:44:00.474Z,83
2023-02-02T13:45:04.664Z,83
2023-02-02T13:46:00.568Z,83
2023-02-02T13:47:00.452Z,83
2023-02-02T13:48:00.531Z,83
2023-02-02T13:49:00.492Z,83
2023-02-02T13:50:06.067Z,83
2023-02-02T13:51:00.438Z,83
2023-02-02T13:52:00.593Z,83
2023-02-02T13:53:00.454Z,83
2023-02-02T13:54:00.587Z,83
2023-02-02T13:55:04.786Z,83
2023-02-02T13:56:00.530Z,83
2023-02-02T13:57:00.482Z,83
2023-02-02T13:58:00.594Z,83
2023-02-02T13:59:00.469Z,83
2023-02-02T14:00:09.026Z,83
2023-02-02T14:01:00.703Z,83
2023-02-02T14:02:00.605Z,83
2023-02-02T14:03:00.548Z,83
2023-02-02T14:04:00.744Z,83
2023-02-02T14:05:03.841Z,83
2023-02-02T14:06:00.634Z,82
2023-02-02T14:07:00.535Z,82
2023-02-02T14:08:00.619Z,82
2023-02-02T14:09:00.564Z,83
2023-02-02T14:10:05.156Z,83
2023-02-02T14:11:00.581Z,83
2023-02-02T14:12:00.651Z,82
2023-02-02T14:13:02.404Z,82
2023-02-02T14:14:00.652Z,82
2023-02-02T14:15:04.039Z,82